createdAt,value
2018-07-25T00:00:46.100Z,23.94
2018-07-25T00:01:45.979Z,23.92
2018-07-25T00:02:45.975Z,23.86
2018-07-25T00:03:45.975Z,23.82
2018-07-25T00:04:45.855Z,23.81
2018-07-25T00:05:45.855Z,23.86
2018-07-25T00:06:45.854Z,23.91
2018-07-25T00:07:45.735Z,23.84
2018-07-25T00:08:45.733Z,23.69
2018-07-25T00:09:45.738Z,23.82
2018-07-25T00:10:45.612Z,23.66
2018-07-25T00:11:45.613Z,23.73
2018-07-25T00:12:45.613Z,23.70
2018-07-25T00:13:45.494Z,23.64
2018-07-25T00:14:45.497Z,23.76
2018-07-25T00:15:45.499Z,23.74
2018-07-25T00:16:45.379Z,23.74
2018-07-25T00:17:45.371Z,23.64
2018-07-25T00:18:45.371Z,23.63
2018-07-25T00:19:45.368Z,23.67
2018-07-25T00:20:45.251Z,23.69
2018-07-25T00:21:45.251Z,23.66
2018-07-25T00:22:45.211Z,23.67
2018-07-25T00:23:45.134Z,23.64
2018-07-25T00:24:45.130Z,23.63
2018-07-25T00:25:45.132Z,23.63
2018-07-25T00:26:45.012Z,23.62
2018-07-25T00:27:45.011Z,23.66
2018-07-25T00:28:45.009Z,23.64
2018-07-25T00:29:44.891Z,23.64
2018-07-25T00:30:44.892Z,23.59
2018-07-25T00:31:44.888Z,23.62
2018-07-25T00:32:44.768Z,23.62
2018-07-25T00:33:44.767Z,23.58
2018-07-25T00:34:44.768Z,23.51
2018-07-25T00:35:44.648Z,23.58
2018-07-25T00:36:44.648Z,23.63
2018-07-25T00:37:44.646Z,23.52
2018-07-25T00:38:44.527Z,23.58
2018-07-25T00:39:44.529Z,23.58
2018-07-25T00:40:44.526Z,23.62
2018-07-25T00:41:44.408Z,23.63
2018-07-25T00:42:44.405Z,23.64
2018-07-25T00:43:44.404Z,23.62
2018-07-25T00:44:44.285Z,23.62
2018-07-25T00:45:44.285Z,23.58
2018-07-25T00:46:44.284Z,23.59
2018-07-25T00:47:44.167Z,23.56
2018-07-25T00:48:44.164Z,23.55
2018-07-25T00:49:44.168Z,23.58
2018-07-25T00:50:44.043Z,23.62
2018-07-25T00:51:44.045Z,23.62
2018-07-25T00:52:44.045Z,23.63
2018-07-25T00:53:44.001Z,23.59
2018-07-25T00:54:43.926Z,23.51
2018-07-25T00:55:43.923Z,23.55
2018-07-25T00:56:43.923Z,23.58
2018-07-25T00:57:43.802Z,23.56
2018-07-25T00:58:43.803Z,23.56
2018-07-25T00:59:43.802Z,23.51
2018-07-25T01:00:43.682Z,23.51
2018-07-25T01:01:43.683Z,23.49
2018-07-25T01:02:43.681Z,23.37
2018-07-25T01:03:43.562Z,23.48
2018-07-25T01:04:43.559Z,23.47
2018-07-25T01:05:43.560Z,23.44
2018-07-25T01:06:43.441Z,23.39
2018-07-25T01:07:43.439Z,23.44
2018-07-25T01:08:43.439Z,23.34
2018-07-25T01:09:43.320Z,23.34
2018-07-25T01:10:43.321Z,23.37
2018-07-25T01:11:43.321Z,23.36
2018-07-25T01:12:43.201Z,23.23
2018-07-25T01:13:43.198Z,23.26
2018-07-25T01:14:43.198Z,23.26
2018-07-25T01:15:43.078Z,23.28
2018-07-25T01:16:43.083Z,23.25
2018-07-25T01:17:43.077Z,23.20
2018-07-25T01:18:42.957Z,23.16
2018-07-25T01:19:43.041Z,23.13
2018-07-25T01:20:42.967Z,23.13
2018-07-25T01:21:42.837Z,23.10
2018-07-25T01:22:42.837Z,23.07
2018-07-25T01:23:42.835Z,23.07
2018-07-25T01:24:42.794Z,23.04
2018-07-25T01:25:42.792Z,23.06
2018-07-25T01:26:42.716Z,23.02
2018-07-25T01:27:42.674Z,22.98
2018-07-25T01:28:42.596Z,22.93
2018-07-25T01:29:42.595Z,22.96
2018-07-25T01:30:42.595Z,22.89
2018-07-25T01:31:42.475Z,22.83
2018-07-25T01:32:42.474Z,22.80
2018-07-25T01:33:42.475Z,22.86
2018-07-25T01:34:42.354Z,22.77
2018-07-25T01:35:42.354Z,22.73
2018-07-25T01:36:42.354Z,22.68
2018-07-25T01:37:42.233Z,22.68
2018-07-25T01:38:42.236Z,22.63
2018-07-25T01:39:42.130Z,22.67
2018-07-25T01:40:42.090Z,22.73
2018-07-25T01:41:42.051Z,22.67
2018-07-25T01:42:42.014Z,22.61
2018-07-25T01:43:41.973Z,22.61
2018-07-25T01:44:41.933Z,22.55
2018-07-25T01:45:42.003Z,22.65
2018-07-25T01:46:41.880Z,22.55
2018-07-25T01:47:41.882Z,22.52
2018-07-25T01:48:41.878Z,22.52
2018-07-25T01:49:41.762Z,22.49
2018-07-25T01:50:41.760Z,22.52
2018-07-25T01:51:41.759Z,22.55
2018-07-25T01:52:41.639Z,22.37
2018-07-25T01:53:41.638Z,22.51
2018-07-25T01:54:41.638Z,22.44
2018-07-25T01:55:41.517Z,22.38
2018-07-25T01:56:41.519Z,22.37
2018-07-25T01:57:41.517Z,22.43
2018-07-25T01:58:41.398Z,22.44
2018-07-25T01:59:41.397Z,22.44
2018-07-25T02:00:41.399Z,22.40
2018-07-25T02:01:41.276Z,22.37
2018-07-25T02:02:41.277Z,22.36
2018-07-25T02:03:41.275Z,22.31
2018-07-25T02:04:41.156Z,22.25
2018-07-25T02:05:41.156Z,22.25
2018-07-25T02:06:41.154Z,22.25
2018-07-25T02:07:41.035Z,22.19
2018-07-25T02:08:41.036Z,22.15
2018-07-25T02:09:41.037Z,22.26
2018-07-25T02:10:40.916Z,22.21
2018-07-25T02:11:40.918Z,22.16
2018-07-25T02:12:40.915Z,22.16
2018-07-25T02:13:40.793Z,22.15
2018-07-25T02:14:40.794Z,22.12
2018-07-25T02:15:40.792Z,22.15
2018-07-25T02:16:40.673Z,22.10
2018-07-25T02:17:40.674Z,22.07
2018-07-25T02:18:40.673Z,22.06
2018-07-25T02:19:40.552Z,22.07
2018-07-25T02:20:40.552Z,21.99
2018-07-25T02:21:40.553Z,22.03
2018-07-25T02:22:40.434Z,22.01
2018-07-25T02:23:40.432Z,22.00
2018-07-25T02:24:40.436Z,21.99
2018-07-25T02:25:40.393Z,21.96
2018-07-25T02:26:40.311Z,21.96
2018-07-25T02:27:40.311Z,21.94
2018-07-25T02:28:40.269Z,21.94
2018-07-25T02:29:40.194Z,21.92
2018-07-25T02:30:40.192Z,21.89
2018-07-25T02:31:40.190Z,21.77
2018-07-25T02:32:40.071Z,21.77
2018-07-25T02:33:40.073Z,21.77
2018-07-25T02:34:40.069Z,21.81
2018-07-25T02:35:39.948Z,21.74
2018-07-25T02:36:39.949Z,21.72
2018-07-25T02:37:39.951Z,21.65
2018-07-25T02:38:39.833Z,21.66
2018-07-25T02:39:39.827Z,21.72
2018-07-25T02:40:39.828Z,21.66
2018-07-25T02:41:39.710Z,21.65
2018-07-25T02:42:39.709Z,21.68
2018-07-25T02:43:39.714Z,21.68
2018-07-25T02:44:39.588Z,21.65
2018-07-25T02:45:39.591Z,21.62
2018-07-25T02:46:39.591Z,21.60
2018-07-25T02:47:39.469Z,21.56
2018-07-25T02:48:39.467Z,21.62
2018-07-25T02:49:39.466Z,21.53
2018-07-25T02:50:39.348Z,21.62
2018-07-25T02:51:39.347Z,21.50
2018-07-25T02:52:39.346Z,21.47
2018-07-25T02:53:39.225Z,21.50
2018-07-25T02:54:39.226Z,21.53
2018-07-25T02:55:39.228Z,21.40
2018-07-25T02:56:39.111Z,21.38
2018-07-25T02:57:39.103Z,21.35
2018-07-25T02:58:39.104Z,21.32
2018-07-25T02:59:38.984Z,21.44
2018-07-25T03:00:38.985Z,21.35
2018-07-25T03:01:38.983Z,21.41
2018-07-25T03:02:38.863Z,21.38
2018-07-25T03:03:38.866Z,21.33
2018-07-25T03:04:38.863Z,21.33
2018-07-25T03:05:38.743Z,21.30
2018-07-25T03:06:38.745Z,21.28
2018-07-25T03:07:38.745Z,21.32
2018-07-25T03:08:38.621Z,21.29
2018-07-25T03:09:38.624Z,21.35
2018-07-25T03:10:38.626Z,21.32
2018-07-25T03:11:38.501Z,21.32
2018-07-25T03:12:38.501Z,21.23
2018-07-25T03:13:38.503Z,21.23
2018-07-25T03:14:38.383Z,21.28
2018-07-25T03:15:38.382Z,21.26
2018-07-25T03:16:38.384Z,21.20
2018-07-25T03:17:38.263Z,21.20
2018-07-25T03:18:38.275Z,21.25
2018-07-25T03:19:38.259Z,21.19
2018-07-25T03:20:38.139Z,21.17
2018-07-25T03:21:38.140Z,21.19
2018-07-25T03:22:38.137Z,21.08
2018-07-25T03:23:38.020Z,21.17
2018-07-25T03:24:38.018Z,21.13
2018-07-25T03:25:38.019Z,21.13
2018-07-25T03:26:37.897Z,21.13
2018-07-25T03:27:37.898Z,21.10
2018-07-25T03:28:37.900Z,21.11
2018-07-25T03:29:37.776Z,21.04
2018-07-25T03:30:37.779Z,21.07
2018-07-25T03:31:37.865Z,21.05
2018-07-25T03:32:37.655Z,21.11
2018-07-25T03:33:37.655Z,20.96
2018-07-25T03:34:37.655Z,21.05
2018-07-25T03:35:37.535Z,21.01
2018-07-25T03:36:37.534Z,21.04
2018-07-25T03:37:37.537Z,21.01
2018-07-25T03:38:37.415Z,21.00
2018-07-25T03:39:37.416Z,21.00
2018-07-25T03:40:37.414Z,21.01
2018-07-25T03:41:37.297Z,20.98
2018-07-25T03:42:37.293Z,20.98
2018-07-25T03:43:37.291Z,21.04
2018-07-25T03:44:37.173Z,20.95
2018-07-25T03:45:37.174Z,20.89
2018-07-25T03:46:37.175Z,20.88
2018-07-25T03:47:37.060Z,20.88
2018-07-25T03:48:37.053Z,20.86
2018-07-25T03:49:37.053Z,20.88
2018-07-25T03:50:36.932Z,20.89
2018-07-25T03:51:36.933Z,20.85
2018-07-25T03:52:36.931Z,20.83
2018-07-25T03:53:36.810Z,20.89
2018-07-25T03:54:36.812Z,20.88
2018-07-25T03:55:36.817Z,20.80
2018-07-25T03:56:36.690Z,20.80
2018-07-25T03:57:36.692Z,20.82
2018-07-25T03:58:36.691Z,20.73
2018-07-25T03:59:36.570Z,20.78
2018-07-25T04:00:36.572Z,20.82
2018-07-25T04:01:36.568Z,20.82
2018-07-25T04:02:36.508Z,20.78
2018-07-25T04:03:36.447Z,20.71
2018-07-25T04:04:36.448Z,20.70
2018-07-25T04:05:36.328Z,20.73
2018-07-25T04:06:36.333Z,20.71
2018-07-25T04:07:36.330Z,20.67
2018-07-25T04:08:36.208Z,20.71
2018-07-25T04:09:36.212Z,20.70
2018-07-25T04:10:36.210Z,20.74
2018-07-25T04:11:36.091Z,20.66
2018-07-25T04:12:36.088Z,20.66
2018-07-25T04:13:36.092Z,20.67
2018-07-25T04:14:35.966Z,20.67
2018-07-25T04:15:35.967Z,20.66
2018-07-25T04:16:35.969Z,20.67
2018-07-25T04:17:35.852Z,20.70
2018-07-25T04:18:35.847Z,20.68
2018-07-25T04:19:35.846Z,20.70
2018-07-25T04:20:35.726Z,20.66
2018-07-25T04:21:35.723Z,20.68
2018-07-25T04:22:35.729Z,20.67
2018-07-25T04:23:35.607Z,20.66
2018-07-25T04:24:35.645Z,20.68
2018-07-25T04:25:35.604Z,20.64
2018-07-25T04:26:35.485Z,20.68
2018-07-25T04:27:35.485Z,20.71
2018-07-25T04:28:35.485Z,20.71
2018-07-25T04:29:35.364Z,20.63
2018-07-25T04:30:35.364Z,20.70
2018-07-25T04:31:35.365Z,20.67
2018-07-25T04:32:35.253Z,20.66
2018-07-25T04:33:35.247Z,20.66
2018-07-25T04:34:35.244Z,20.71
2018-07-25T04:35:35.124Z,20.67
2018-07-25T04:36:35.122Z,20.64
2018-07-25T04:37:35.130Z,20.67
2018-07-25T04:38:35.002Z,20.68
2018-07-25T04:39:35.003Z,20.70
2018-07-25T04:40:35.005Z,20.68
2018-07-25T04:41:34.885Z,20.67
2018-07-25T04:42:34.900Z,20.71
2018-07-25T04:43:34.880Z,20.75
2018-07-25T04:44:34.761Z,20.73
2018-07-25T04:45:34.760Z,20.75
2018-07-25T04:46:34.894Z,20.75
2018-07-25T04:47:34.644Z,20.73
2018-07-25T04:48:34.641Z,20.70
2018-07-25T04:49:34.639Z,20.77
2018-07-25T04:50:34.520Z,20.74
2018-07-25T04:51:34.519Z,20.78
2018-07-25T04:52:34.520Z,20.82
2018-07-25T04:53:34.400Z,20.78
2018-07-25T04:54:34.405Z,20.85
2018-07-25T04:55:34.401Z,20.80
2018-07-25T04:56:34.278Z,20.88
2018-07-25T04:57:34.277Z,20.78
2018-07-25T04:58:34.280Z,20.92
2018-07-25T04:59:34.158Z,20.80
2018-07-25T05:00:34.160Z,20.83
2018-07-25T05:01:34.157Z,20.90
2018-07-25T05:02:34.038Z,20.86
2018-07-25T05:03:34.037Z,20.83
2018-07-25T05:04:34.035Z,20.96
2018-07-25T05:05:33.921Z,20.95
2018-07-25T05:06:33.916Z,20.98
2018-07-25T05:07:33.919Z,20.98
2018-07-25T05:08:33.800Z,21.00
2018-07-25T05:09:33.796Z,20.95
2018-07-25T05:10:33.795Z,21.00
2018-07-25T05:11:33.676Z,21.08
2018-07-25T05:12:33.707Z,21.08
2018-07-25T05:13:33.675Z,21.13
2018-07-25T05:14:33.555Z,21.15
2018-07-25T05:15:33.553Z,21.13
2018-07-25T05:16:33.556Z,21.17
2018-07-25T05:17:33.433Z,21.20
2018-07-25T05:18:33.433Z,21.23
2018-07-25T05:19:33.435Z,21.26
2018-07-25T05:20:33.313Z,21.28
2018-07-25T05:21:33.315Z,21.26
2018-07-25T05:22:33.311Z,21.37
2018-07-25T05:23:33.193Z,21.35
2018-07-25T05:24:33.192Z,21.29
2018-07-25T05:25:33.190Z,21.32
2018-07-25T05:26:33.071Z,21.33
2018-07-25T05:27:33.079Z,21.35
2018-07-25T05:28:33.070Z,21.33
2018-07-25T05:29:32.953Z,21.51
2018-07-25T05:30:32.950Z,21.53
2018-07-25T05:31:32.950Z,21.48
2018-07-25T05:32:32.840Z,21.51
2018-07-25T05:33:32.829Z,21.59
2018-07-25T05:34:32.832Z,21.59
2018-07-25T05:35:32.711Z,21.62
2018-07-25T05:36:32.709Z,21.68
2018-07-25T05:37:32.709Z,21.75
2018-07-25T05:38:32.592Z,21.72
2018-07-25T05:39:32.591Z,21.70
2018-07-25T05:40:32.589Z,21.78
2018-07-25T05:41:32.467Z,21.77
2018-07-25T05:42:32.469Z,21.80
2018-07-25T05:43:32.468Z,21.94
2018-07-25T05:44:32.347Z,21.94
2018-07-25T05:45:32.347Z,22.03
2018-07-25T05:46:32.346Z,22.01
2018-07-25T05:47:32.228Z,22.00
2018-07-25T05:48:32.227Z,22.12
2018-07-25T05:49:32.299Z,22.14
2018-07-25T05:50:32.106Z,22.14
2018-07-25T05:51:32.109Z,22.22
2018-07-25T05:52:32.106Z,22.15
2018-07-25T05:53:31.986Z,22.26
2018-07-25T05:54:31.988Z,22.23
2018-07-25T05:55:31.984Z,22.37
2018-07-25T05:56:31.867Z,22.43
2018-07-25T05:57:31.867Z,22.37
2018-07-25T05:58:31.864Z,22.51
2018-07-25T05:59:31.748Z,22.53
2018-07-25T06:00:31.745Z,22.61
2018-07-25T06:01:31.759Z,22.56
2018-07-25T06:02:31.623Z,22.63
2018-07-25T06:03:31.713Z,22.70
2018-07-25T06:04:31.624Z,22.71
2018-07-25T06:05:31.504Z,22.81
2018-07-25T06:06:31.503Z,22.76
2018-07-25T06:07:31.502Z,22.88
2018-07-25T06:08:31.431Z,22.84
2018-07-25T06:09:31.381Z,22.98
2018-07-25T06:10:31.382Z,23.04
2018-07-25T06:11:31.261Z,23.04
2018-07-25T06:12:31.265Z,23.10
2018-07-25T06:13:31.263Z,23.16
2018-07-25T06:14:31.141Z,23.10
2018-07-25T06:15:31.145Z,23.26
2018-07-25T06:16:31.141Z,23.21
2018-07-25T06:17:31.020Z,23.25
2018-07-25T06:18:31.047Z,23.34
2018-07-25T06:19:31.019Z,23.36
2018-07-25T06:20:30.907Z,23.36
2018-07-25T06:21:30.898Z,23.42
2018-07-25T06:22:30.899Z,23.49
2018-07-25T06:23:30.856Z,23.42
2018-07-25T06:24:30.778Z,23.55
2018-07-25T06:25:30.778Z,23.55
2018-07-25T06:26:30.780Z,23.63
2018-07-25T06:27:30.657Z,23.64
2018-07-25T06:28:30.661Z,23.76
2018-07-25T06:29:30.657Z,23.82
2018-07-25T06:30:30.538Z,23.79
2018-07-25T06:31:30.537Z,23.77
2018-07-25T06:32:30.536Z,23.84
2018-07-25T06:33:30.415Z,23.85
2018-07-25T06:34:30.416Z,23.96
2018-07-25T06:35:30.417Z,24.01
2018-07-25T06:36:30.294Z,23.99
2018-07-25T06:37:30.296Z,24.03
2018-07-25T06:38:30.295Z,24.18
2018-07-25T06:39:30.173Z,24.16
2018-07-25T06:40:30.174Z,24.14
2018-07-25T06:41:30.177Z,24.22
2018-07-25T06:42:30.054Z,24.32
2018-07-25T06:43:30.098Z,24.31
2018-07-25T06:44:30.054Z,24.32
2018-07-25T06:45:29.935Z,24.37
2018-07-25T06:46:29.932Z,24.34
2018-07-25T06:47:29.934Z,24.47
2018-07-25T06:48:29.815Z,24.44
2018-07-25T06:49:29.811Z,24.53
2018-07-25T06:50:29.812Z,24.62
2018-07-25T06:51:29.813Z,24.66
2018-07-25T06:52:29.691Z,24.68
2018-07-25T06:53:29.690Z,24.74
2018-07-25T06:54:29.695Z,24.79
2018-07-25T06:55:29.572Z,24.88
2018-07-25T06:56:29.572Z,24.94
2018-07-25T06:57:29.571Z,24.92
2018-07-25T06:58:29.452Z,24.97
2018-07-25T06:59:29.450Z,24.96
2018-07-25T07:00:29.449Z,25.04
2018-07-25T07:01:29.328Z,25.04
2018-07-25T07:02:29.330Z,25.06
2018-07-25T07:03:29.334Z,25.18
2018-07-25T07:04:29.210Z,25.14
2018-07-25T07:05:29.211Z,25.22
2018-07-25T07:06:29.231Z,25.25
2018-07-25T07:07:29.087Z,25.26
2018-07-25T07:08:29.090Z,25.31
2018-07-25T07:09:29.091Z,25.37
2018-07-25T07:10:29.045Z,25.34
2018-07-25T07:11:28.965Z,25.44
2018-07-25T07:12:28.967Z,25.59
2018-07-25T07:13:28.970Z,25.49
2018-07-25T07:14:28.847Z,25.52
2018-07-25T07:15:28.847Z,25.62
2018-07-25T07:16:28.846Z,25.58
2018-07-25T07:17:28.786Z,25.61
2018-07-25T07:18:28.726Z,25.70
2018-07-25T07:19:28.726Z,25.71
2018-07-25T07:20:28.803Z,25.76
2018-07-25T07:21:28.604Z,25.74
2018-07-25T07:22:28.615Z,25.81
2018-07-25T07:23:28.490Z,25.89
2018-07-25T07:24:28.489Z,25.88
2018-07-25T07:25:28.487Z,25.86
2018-07-25T07:26:28.363Z,25.91
2018-07-25T07:27:28.368Z,26.04
2018-07-25T07:28:28.361Z,26.01
2018-07-25T07:29:28.360Z,26.11
2018-07-25T07:30:28.245Z,26.22
2018-07-25T07:31:28.286Z,26.19
2018-07-25T07:32:28.244Z,26.19
2018-07-25T07:33:28.134Z,26.23
2018-07-25T07:34:28.122Z,26.23
2018-07-25T07:35:28.121Z,26.30
2018-07-25T07:36:27.999Z,26.36
2018-07-25T07:37:28.199Z,26.39
2018-07-25T07:38:27.998Z,26.41
2018-07-25T07:39:27.879Z,26.49
2018-07-25T07:40:27.879Z,26.48
2018-07-25T07:41:27.878Z,26.52
2018-07-25T07:42:27.757Z,26.60
2018-07-25T07:43:27.757Z,26.61
2018-07-25T07:44:27.764Z,26.61
2018-07-25T07:45:27.760Z,26.70
2018-07-25T07:46:27.638Z,26.76
2018-07-25T07:47:27.639Z,26.76
2018-07-25T07:48:27.636Z,26.82
2018-07-25T07:49:27.519Z,26.89
2018-07-25T07:50:27.517Z,26.91
2018-07-25T07:51:27.517Z,26.97
2018-07-25T07:52:27.400Z,27.04
2018-07-25T07:53:27.397Z,27.00
2018-07-25T07:54:27.395Z,27.07
2018-07-25T07:55:27.294Z,27.07
2018-07-25T07:56:27.279Z,27.15
2018-07-25T07:57:27.275Z,27.18
2018-07-25T07:58:27.275Z,27.19
2018-07-25T07:59:27.215Z,27.34
2018-07-25T08:00:27.155Z,27.34
2018-07-25T08:01:27.153Z,27.37
2018-07-25T08:02:27.033Z,27.44
2018-07-25T08:03:27.057Z,27.44
2018-07-25T08:04:27.034Z,27.50
2018-07-25T08:05:26.912Z,27.64
2018-07-25T08:06:26.913Z,27.61
2018-07-25T08:07:26.912Z,27.66
2018-07-25T08:08:26.796Z,27.73
2018-07-25T08:09:26.793Z,27.83
2018-07-25T08:10:26.790Z,27.91
2018-07-25T08:11:26.792Z,27.85
2018-07-25T08:12:26.671Z,27.88
2018-07-25T08:13:26.671Z,27.91
2018-07-25T08:14:26.673Z,28.01
2018-07-25T08:15:26.550Z,28.01
2018-07-25T08:16:26.548Z,28.15
2018-07-25T08:17:26.549Z,28.28
2018-07-25T08:18:26.428Z,28.19
2018-07-25T08:19:26.429Z,28.23
2018-07-25T08:20:26.429Z,28.31
2018-07-25T08:21:26.387Z,28.38
2018-07-25T08:22:26.308Z,28.41
2018-07-25T08:23:26.384Z,28.45
2018-07-25T08:24:26.316Z,28.56
2018-07-25T08:25:26.191Z,28.53
2018-07-25T08:26:26.187Z,28.68
2018-07-25T08:27:26.187Z,28.65
2018-07-25T08:28:26.068Z,28.71
2018-07-25T08:29:26.066Z,28.70
2018-07-25T08:30:26.068Z,28.74
2018-07-25T08:31:25.948Z,28.78
2018-07-25T08:32:25.945Z,28.84
2018-07-25T08:33:25.946Z,28.83
2018-07-25T08:34:25.998Z,28.86
2018-07-25T08:35:25.826Z,28.93
2018-07-25T08:36:25.824Z,29.00
2018-07-25T08:37:25.825Z,29.00
2018-07-25T08:38:25.707Z,29.12
2018-07-25T08:39:25.704Z,29.03
2018-07-25T08:40:25.708Z,29.18
2018-07-25T08:41:25.586Z,29.16
2018-07-25T08:42:25.585Z,29.16
2018-07-25T08:43:25.585Z,29.28
2018-07-25T08:44:25.583Z,29.28
2018-07-25T08:45:25.464Z,29.31
2018-07-25T08:46:25.462Z,29.37
2018-07-25T08:47:25.464Z,29.44
2018-07-25T08:48:25.342Z,29.43
2018-07-25T08:49:25.350Z,29.53
2018-07-25T08:50:25.342Z,29.55
2018-07-25T08:51:25.223Z,29.58
2018-07-25T08:52:25.249Z,29.64
2018-07-25T08:53:25.223Z,29.58
2018-07-25T08:54:25.219Z,29.64
2018-07-25T08:55:25.104Z,29.74
2018-07-25T08:56:25.098Z,29.71
2018-07-25T08:57:25.102Z,29.84
2018-07-25T08:58:24.978Z,29.81
2018-07-25T08:59:24.978Z,29.94
2018-07-25T09:00:24.981Z,29.98
2018-07-25T09:01:24.981Z,30.02
2018-07-25T09:02:24.861Z,30.11
2018-07-25T09:03:24.858Z,30.11
2018-07-25T09:04:24.858Z,30.08
2018-07-25T09:05:24.741Z,30.24
2018-07-25T09:06:24.763Z,30.21
2018-07-25T09:07:24.763Z,30.23
2018-07-25T09:08:24.616Z,30.32
2018-07-25T09:09:24.615Z,30.38
2018-07-25T09:10:24.627Z,30.43
2018-07-25T09:11:24.623Z,30.52
2018-07-25T09:12:24.494Z,30.58
2018-07-25T09:13:24.505Z,30.67
2018-07-25T09:14:24.495Z,30.62
2018-07-25T09:15:24.380Z,30.61
2018-07-25T09:16:24.373Z,30.69
2018-07-25T09:17:24.374Z,30.74
2018-07-25T09:18:24.374Z,30.80
2018-07-25T09:19:24.253Z,30.81
2018-07-25T09:20:24.253Z,30.77
2018-07-25T09:21:24.252Z,30.95
2018-07-25T09:22:24.134Z,30.91
2018-07-25T09:23:24.132Z,31.04
2018-07-25T09:24:24.133Z,31.08
2018-07-25T09:25:24.140Z,31.14
2018-07-25T09:26:24.018Z,31.25
2018-07-25T09:27:24.010Z,31.26
2018-07-25T09:28:24.012Z,31.22
2018-07-25T09:29:23.890Z,31.26
2018-07-25T09:30:23.900Z,31.30
2018-07-25T09:31:23.890Z,31.50
2018-07-25T09:32:23.769Z,31.48
2018-07-25T09:33:23.774Z,31.51
2018-07-25T09:34:23.792Z,31.64
2018-07-25T09:35:23.769Z,31.57
2018-07-25T09:36:23.650Z,31.66
2018-07-25T09:37:23.649Z,31.67
2018-07-25T09:38:23.648Z,31.82
2018-07-25T09:39:23.530Z,31.85
2018-07-25T09:40:23.528Z,31.86
2018-07-25T09:41:23.527Z,32.01
2018-07-25T09:42:23.527Z,32.08
2018-07-25T09:43:23.408Z,32.11
2018-07-25T09:44:23.406Z,32.11
2018-07-25T09:45:23.406Z,32.26
2018-07-25T09:46:23.287Z,32.20
2018-07-25T09:47:23.285Z,32.46
2018-07-25T09:48:23.301Z,32.45
2018-07-25T09:49:23.289Z,32.53
2018-07-25T09:50:23.165Z,32.46
2018-07-25T09:51:23.167Z,32.61
2018-07-25T09:52:23.169Z,32.75
2018-07-25T09:53:23.046Z,32.75
2018-07-25T09:54:23.050Z,32.72
2018-07-25T09:55:23.046Z,32.75
2018-07-25T09:56:23.065Z,32.72
2018-07-25T09:57:22.924Z,32.57
2018-07-25T09:58:22.923Z,32.49
2018-07-25T09:59:22.924Z,32.35
2018-07-25T10:00:22.809Z,32.29
2018-07-25T10:01:22.805Z,32.24
2018-07-25T10:02:22.808Z,32.19
2018-07-25T10:03:22.805Z,32.16
2018-07-25T10:04:22.681Z,32.16
2018-07-25T10:05:22.688Z,32.16
2018-07-25T10:06:22.694Z,32.05
2018-07-25T10:07:22.894Z,32.04
2018-07-25T10:08:22.585Z,31.98
2018-07-25T10:09:22.568Z,31.93
2018-07-25T10:10:22.568Z,31.93
2018-07-25T10:11:22.461Z,31.98
2018-07-25T10:12:22.440Z,31.92
2018-07-25T10:13:22.443Z,31.81
2018-07-25T10:14:22.402Z,31.81
2018-07-25T10:15:22.347Z,31.81
2018-07-25T10:16:22.322Z,31.74
2018-07-25T10:17:22.340Z,31.79
2018-07-25T10:18:22.204Z,31.74
2018-07-25T10:19:22.203Z,31.55
2018-07-25T10:20:22.203Z,31.59
2018-07-25T10:21:22.156Z,31.50
2018-07-25T10:22:22.080Z,31.51
2018-07-25T10:23:22.102Z,31.50
2018-07-25T10:24:22.079Z,31.47
2018-07-25T10:25:21.961Z,31.29
2018-07-25T10:26:21.959Z,31.35
2018-07-25T10:27:22.057Z,31.33
2018-07-25T10:28:21.916Z,31.23
2018-07-25T10:29:21.838Z,31.23
2018-07-25T10:30:21.837Z,31.17
2018-07-25T10:31:21.839Z,31.17
2018-07-25T10:32:21.739Z,31.14
2018-07-25T10:33:21.807Z,31.14
2018-07-25T10:34:21.749Z,31.17
2018-07-25T10:35:21.675Z,31.14
2018-07-25T10:36:21.595Z,31.20
2018-07-25T10:37:21.615Z,31.17
2018-07-25T10:38:21.604Z,31.20
2018-07-25T10:39:21.475Z,31.17
2018-07-25T10:40:21.474Z,31.33
2018-07-25T10:41:21.473Z,31.35
2018-07-25T10:42:21.354Z,31.37
2018-07-25T10:43:21.353Z,31.39
2018-07-25T10:44:21.430Z,31.52
2018-07-25T10:45:21.354Z,31.48
2018-07-25T10:46:21.232Z,31.52
2018-07-25T10:47:21.231Z,31.57
2018-07-25T10:48:21.233Z,31.64
2018-07-25T10:49:21.111Z,31.73
2018-07-25T10:50:21.110Z,31.73
2018-07-25T10:51:21.170Z,31.85
2018-07-25T10:52:21.110Z,31.87
2018-07-25T10:53:20.990Z,32.08
2018-07-25T10:54:20.995Z,32.12
2018-07-25T10:55:20.994Z,32.12
2018-07-25T10:56:20.990Z,32.30
2018-07-25T10:57:20.869Z,32.45
2018-07-25T10:58:20.868Z,32.54
2018-07-25T10:59:20.869Z,32.68
2018-07-25T11:00:20.758Z,32.75
2018-07-25T11:01:20.757Z,32.76
2018-07-25T11:02:20.749Z,32.85
2018-07-25T11:03:20.629Z,32.88
2018-07-25T11:04:20.639Z,32.94
2018-07-25T11:05:20.626Z,32.94
2018-07-25T11:06:20.628Z,33.05
2018-07-25T11:07:20.509Z,33.10
2018-07-25T11:08:20.512Z,33.22
2018-07-25T11:09:20.509Z,33.33
2018-07-25T11:10:20.464Z,33.29
2018-07-25T11:11:20.389Z,33.38
2018-07-25T11:12:20.389Z,33.39
2018-07-25T11:13:20.385Z,33.50
2018-07-25T11:14:20.264Z,33.48
2018-07-25T11:15:20.267Z,33.40
2018-07-25T11:16:20.404Z,33.44
2018-07-25T11:17:20.268Z,33.61
2018-07-25T11:18:20.149Z,33.57
2018-07-25T11:19:20.144Z,33.66
2018-07-25T11:20:20.143Z,33.66
2018-07-25T11:21:20.024Z,33.76
2018-07-25T11:22:20.023Z,33.82
2018-07-25T11:23:20.025Z,33.98
2018-07-25T11:24:20.024Z,34.03
2018-07-25T11:25:19.903Z,33.97
2018-07-25T11:26:19.902Z,33.92
2018-07-25T11:27:19.902Z,33.97
2018-07-25T11:28:19.900Z,34.04
2018-07-25T11:29:19.783Z,34.02
2018-07-25T11:30:19.781Z,34.10
2018-07-25T11:31:19.786Z,34.10
2018-07-25T11:32:19.662Z,34.18
2018-07-25T11:33:19.672Z,34.28
2018-07-25T11:34:19.661Z,34.32
2018-07-25T11:35:19.672Z,34.33
2018-07-25T11:36:19.540Z,34.37
2018-07-25T11:37:19.540Z,34.44
2018-07-25T11:38:19.539Z,34.44
2018-07-25T11:39:19.498Z,34.47
2018-07-25T11:40:19.420Z,34.46
2018-07-25T11:41:19.421Z,34.58
2018-07-25T11:42:19.419Z,34.60
2018-07-25T11:43:19.299Z,34.65
2018-07-25T11:44:19.305Z,34.65
2018-07-25T11:45:19.298Z,34.60
2018-07-25T11:46:19.298Z,34.50
2018-07-25T11:47:19.178Z,34.59
2018-07-25T11:48:22.902Z,34.58
2018-07-25T11:49:19.176Z,34.63
2018-07-25T11:50:19.225Z,34.62
2018-07-25T11:51:19.055Z,34.71
2018-07-25T11:52:19.060Z,34.93
2018-07-25T11:53:19.057Z,35.01
2018-07-25T11:54:18.937Z,35.12
2018-07-25T11:55:18.953Z,35.16
2018-07-25T11:56:18.935Z,35.25
2018-07-25T11:57:18.936Z,35.31
2018-07-25T11:58:18.814Z,35.42
2018-07-25T11:59:18.814Z,35.64
2018-07-25T12:00:18.822Z,35.74
2018-07-25T12:01:18.831Z,35.86
2018-07-25T12:02:18.693Z,36.13
2018-07-25T12:03:18.691Z,36.38
2018-07-25T12:04:18.691Z,36.39
2018-07-25T12:05:18.654Z,36.57
2018-07-25T12:06:18.571Z,36.76
2018-07-25T12:07:18.585Z,36.94
2018-07-25T12:08:18.579Z,37.07
2018-07-25T12:09:18.454Z,37.16
2018-07-25T12:10:18.454Z,37.44
2018-07-25T12:11:18.450Z,37.67
2018-07-25T12:13:18.330Z,38.20
2018-07-25T12:14:18.334Z,38.51
2018-07-25T12:15:18.253Z,38.88
2018-07-25T12:16:18.222Z,39.19
2018-07-25T12:17:18.189Z,39.49
2018-07-25T12:18:18.157Z,39.71
2018-07-25T12:19:18.126Z,40.01
2018-07-25T12:20:18.093Z,40.23
2018-07-25T12:21:18.119Z,40.57
2018-07-25T12:22:18.038Z,40.96
2018-07-25T12:23:18.000Z,41.34
2018-07-25T12:24:17.970Z,41.71
2018-07-25T12:25:17.939Z,42.09
2018-07-25T12:27:17.877Z,42.58
2018-07-25T12:28:17.843Z,42.96
2018-07-25T12:29:17.814Z,43.18
2018-07-25T12:30:17.787Z,43.39
2018-07-25T12:31:17.754Z,43.65
2018-07-25T12:32:17.723Z,43.85
2018-07-25T12:33:17.696Z,44.02
2018-07-25T12:34:17.663Z,44.23
2018-07-25T12:35:17.630Z,44.52
2018-07-25T12:36:17.599Z,44.03
2018-07-25T12:37:17.569Z,43.31
2018-07-25T12:38:17.541Z,43.12
2018-07-25T12:39:17.508Z,43.63
2018-07-25T12:40:17.481Z,43.43
2018-07-25T12:41:17.455Z,43.31
2018-07-25T12:42:17.421Z,43.29
2018-07-25T12:43:17.394Z,43.77
2018-07-25T12:44:17.364Z,44.22
2018-07-25T12:45:17.332Z,44.60
2018-07-25T12:46:17.301Z,44.98
2018-07-25T12:47:17.276Z,45.13
2018-07-25T12:48:17.249Z,45.32
2018-07-25T12:49:17.211Z,45.39
2018-07-25T12:50:17.182Z,45.52
2018-07-25T12:51:17.154Z,45.56
2018-07-25T12:52:17.122Z,45.70
2018-07-25T12:53:17.146Z,45.73
2018-07-25T12:54:17.068Z,45.92